createdAt,value
2019-05-19T00:02:13.853Z,10.95
2019-05-19T00:04:42.016Z,10.88
2019-05-19T00:07:10.202Z,10.82
2019-05-19T00:09:38.346Z,10.52
2019-05-19T00:12:06.478Z,10.44
2019-05-19T00:14:34.678Z,10.65
2019-05-19T00:17:02.818Z,10.69
2019-05-19T00:19:30.995Z,10.65
2019-05-19T00:21:59.165Z,10.62
2019-05-19T00:24:27.309Z,10.57
2019-05-19T00:26:55.620Z,10.52
2019-05-19T00:29:23.775Z,10.53
2019-05-19T00:31:51.959Z,10.49
2019-05-19T00:34:20.095Z,10.46
2019-05-19T00:36:48.223Z,10.42
2019-05-19T00:39:16.383Z,10.38
2019-05-19T00:41:44.573Z,10.30
2019-05-19T00:44:12.761Z,10.25
2019-05-19T00:46:41.054Z,10.24
2019-05-19T00:49:09.273Z,10.01
2019-05-19T00:51:37.913Z,9.96
2019-05-19T00:54:06.063Z,9.74
2019-05-19T00:56:34.795Z,10.03
2019-05-19T00:59:05.059Z,10.14
2019-05-19T01:01:33.243Z,10.09
2019-05-19T01:04:01.403Z,10.05
2019-05-19T01:06:29.595Z,10.07
2019-05-19T01:08:57.779Z,10.01
2019-05-19T01:11:25.940Z,9.82
2019-05-19T01:13:54.089Z,9.98
2019-05-19T01:16:22.265Z,10.00
2019-05-19T01:18:50.410Z,9.96
2019-05-19T01:21:18.763Z,9.97
2019-05-19T01:23:46.916Z,9.97
2019-05-19T01:26:15.126Z,9.87
2019-05-19T01:28:43.285Z,9.81
2019-05-19T01:31:11.459Z,9.78
2019-05-19T01:33:39.725Z,9.71
2019-05-19T01:36:07.891Z,9.58
2019-05-19T01:38:36.055Z,9.64
2019-05-19T01:41:04.254Z,9.68
2019-05-19T01:43:32.459Z,9.71
2019-05-19T01:46:00.715Z,9.67
2019-05-19T01:48:28.863Z,9.62
2019-05-19T01:50:56.987Z,9.55
2019-05-19T01:53:25.139Z,9.60
2019-05-19T01:55:53.295Z,9.58
2019-05-19T01:58:21.417Z,9.49
2019-05-19T02:00:49.536Z,9.40
2019-05-19T02:03:17.748Z,9.28
2019-05-19T02:05:45.897Z,9.19
2019-05-19T02:08:14.050Z,9.19
2019-05-19T02:10:42.150Z,9.42
2019-05-19T02:13:10.263Z,9.45
2019-05-19T02:15:38.351Z,9.55
2019-05-19T02:18:06.506Z,9.61
2019-05-19T02:20:34.701Z,9.61
2019-05-19T02:23:02.858Z,9.57
2019-05-19T02:25:30.987Z,9.52
2019-05-19T02:27:59.146Z,9.33
2019-05-19T02:30:27.280Z,8.93
2019-05-19T02:32:56.832Z,9.20
2019-05-19T02:35:24.952Z,9.45
2019-05-19T02:37:53.058Z,8.02
2019-05-19T02:40:21.189Z,9.53
2019-05-19T02:42:51.206Z,9.49
2019-05-19T02:45:19.514Z,9.49
2019-05-19T02:47:49.791Z,9.29
2019-05-19T02:50:18.021Z,9.41
2019-05-19T02:52:49.128Z,9.41
2019-05-19T02:55:19.416Z,9.41
2019-05-19T02:57:48.889Z,9.42
2019-05-19T03:00:17.124Z,9.38
2019-05-19T03:02:45.254Z,9.36
2019-05-19T03:05:13.606Z,9.36
2019-05-19T03:07:41.747Z,9.31
2019-05-19T03:10:10.004Z,9.33
2019-05-19T03:12:38.160Z,9.28
2019-05-19T03:15:06.475Z,9.23
2019-05-19T03:17:35.352Z,9.22
2019-05-19T03:20:03.461Z,9.13
2019-05-19T03:22:31.635Z,9.05
2019-05-19T03:24:59.732Z,8.93
2019-05-19T03:27:27.828Z,9.07
2019-05-19T03:29:58.415Z,9.11
2019-05-19T03:32:32.251Z,8.75
2019-05-19T03:35:00.439Z,8.41
2019-05-19T03:37:28.604Z,8.47
2019-05-19T03:39:56.738Z,8.65
2019-05-19T03:42:24.859Z,8.86
2019-05-19T03:44:53.009Z,9.05
2019-05-19T03:47:21.188Z,9.08
2019-05-19T03:49:49.309Z,9.10
2019-05-19T03:52:17.410Z,8.93
2019-05-19T03:54:45.491Z,8.91
2019-05-19T03:57:13.667Z,8.84
2019-05-19T03:59:41.824Z,8.75
2019-05-19T04:02:09.967Z,8.55
2019-05-19T04:04:38.111Z,8.31
2019-05-19T04:07:06.249Z,8.06
2019-05-19T04:09:34.356Z,8.22
2019-05-19T04:12:02.547Z,8.37
2019-05-19T04:14:30.786Z,8.40
2019-05-19T04:16:58.900Z,8.16
2019-05-19T04:19:27.012Z,8.03
2019-05-19T04:21:55.206Z,8.43
2019-05-19T04:24:23.353Z,8.34
2019-05-19T04:26:51.543Z,8.19
2019-05-19T04:29:19.729Z,8.12
2019-05-19T04:31:47.820Z,8.07
2019-05-19T04:34:15.977Z,8.12
2019-05-19T04:36:44.139Z,8.19
2019-05-19T04:39:12.240Z,8.14
2019-05-19T04:41:40.561Z,8.12
2019-05-19T04:44:08.655Z,8.17
2019-05-19T04:46:36.783Z,8.20
2019-05-19T04:49:04.938Z,8.25
2019-05-19T04:51:33.117Z,8.31
2019-05-19T04:54:01.264Z,8.35
2019-05-19T04:56:29.388Z,8.39
2019-05-19T04:58:57.477Z,8.45
2019-05-19T05:01:25.603Z,8.57
2019-05-19T05:03:53.876Z,8.64
2019-05-19T05:06:21.989Z,8.60
2019-05-19T05:08:50.109Z,8.81
2019-05-19T05:11:18.240Z,8.84
2019-05-19T05:13:46.379Z,8.91
2019-05-19T05:16:14.518Z,9.00
2019-05-19T05:18:42.678Z,9.10
2019-05-19T05:21:10.773Z,9.18
2019-05-19T05:23:39.011Z,9.33
2019-05-19T05:26:07.119Z,9.56
2019-05-19T05:28:35.250Z,9.60
2019-05-19T05:31:03.383Z,9.69
2019-05-19T05:33:31.502Z,9.62
2019-05-19T05:35:59.669Z,9.71
2019-05-19T05:38:27.788Z,9.87
2019-05-19T05:40:56.005Z,10.04
2019-05-19T05:43:24.121Z,10.14
2019-05-19T05:45:52.273Z,10.48
2019-05-19T05:48:20.411Z,10.69
2019-05-19T05:50:48.515Z,10.58
2019-05-19T05:53:16.686Z,10.69
2019-05-19T05:55:44.899Z,11.06
2019-05-19T05:58:13.101Z,11.43
2019-05-19T06:00:41.213Z,11.87
2019-05-19T06:03:09.343Z,12.11
2019-05-19T06:05:37.425Z,12.22
2019-05-19T06:08:05.564Z,12.42
2019-05-19T06:10:33.750Z,12.48
2019-05-19T06:13:01.926Z,12.34
2019-05-19T06:15:30.162Z,12.27
2019-05-19T06:18:01.278Z,12.41
2019-05-19T06:20:29.465Z,12.60
2019-05-19T06:22:57.990Z,12.76
2019-05-19T06:25:26.501Z,12.92
2019-05-19T06:27:54.747Z,13.25
2019-05-19T06:30:22.965Z,13.85
2019-05-19T06:32:53.006Z,14.32
2019-05-19T06:35:21.215Z,14.36
2019-05-19T06:37:49.374Z,14.35
2019-05-19T06:40:17.527Z,14.74
2019-05-19T06:42:45.724Z,14.71
2019-05-19T06:45:15.654Z,15.14
2019-05-19T06:47:43.816Z,15.59
2019-05-19T06:50:12.248Z,15.65
2019-05-19T06:52:40.524Z,15.71
2019-05-19T06:55:08.870Z,15.93
2019-05-19T06:57:37.059Z,16.47
2019-05-19T07:00:06.422Z,16.49
2019-05-19T07:02:34.695Z,16.56
2019-05-19T07:05:03.043Z,16.77
2019-05-19T07:07:31.146Z,16.86
2019-05-19T07:09:59.259Z,17.57
2019-05-19T07:12:27.409Z,17.98
2019-05-19T07:14:55.549Z,18.18
2019-05-19T07:17:23.756Z,18.40
2019-05-19T07:19:51.994Z,18.56
2019-05-19T07:22:20.135Z,18.97
2019-05-19T07:24:48.294Z,19.43
2019-05-19T07:27:16.437Z,19.72
2019-05-19T07:29:44.647Z,19.66
2019-05-19T07:32:12.830Z,19.82
2019-05-19T07:34:40.977Z,19.84
2019-05-19T07:37:09.078Z,20.01
2019-05-19T07:39:37.284Z,20.06
2019-05-19T07:42:05.462Z,19.96
2019-05-19T07:44:33.596Z,20.52
2019-05-19T07:47:01.730Z,20.82
2019-05-19T07:49:29.945Z,20.99
2019-05-19T07:51:58.094Z,21.11
2019-05-19T07:54:26.300Z,21.27
2019-05-19T07:56:54.438Z,21.25
2019-05-19T07:59:22.584Z,21.43
2019-05-19T08:01:50.811Z,21.65
2019-05-19T08:04:19.067Z,21.87
2019-05-19T08:06:47.256Z,21.81
2019-05-19T08:09:15.546Z,22.03
2019-05-19T08:11:43.706Z,22.01
2019-05-19T08:14:11.934Z,22.41
2019-05-19T08:16:40.166Z,22.84
2019-05-19T08:19:08.326Z,22.86
2019-05-19T08:21:36.491Z,23.05
2019-05-19T08:24:04.783Z,22.91
2019-05-19T08:26:33.024Z,23.44
2019-05-19T08:29:01.192Z,23.10
2019-05-19T08:31:29.394Z,23.39
2019-05-19T08:33:57.799Z,23.90
2019-05-19T08:36:26.081Z,24.11
2019-05-19T08:38:54.271Z,24.19
2019-05-19T08:41:22.418Z,24.82
2019-05-19T08:43:53.264Z,24.10
2019-05-19T08:46:20.630Z,25.11
2019-05-19T08:48:48.785Z,25.24
2019-05-19T08:51:16.965Z,24.87
2019-05-19T08:53:45.076Z,24.90
2019-05-19T08:56:13.232Z,25.39
2019-05-19T08:58:41.389Z,25.93
2019-05-19T09:01:09.553Z,24.90
2019-05-19T09:03:37.859Z,25.35
2019-05-19T09:06:06.020Z,26.82
2019-05-19T09:08:34.217Z,26.56
2019-05-19T09:11:02.367Z,26.55
2019-05-19T09:13:30.798Z,25.79
2019-05-19T09:15:58.999Z,26.46
2019-05-19T09:18:27.223Z,26.80
2019-05-19T09:20:55.604Z,27.23
2019-05-19T09:23:23.829Z,27.75
2019-05-19T09:25:52.091Z,26.77
2019-05-19T09:28:20.216Z,27.23
2019-05-19T09:30:48.383Z,26.09
2019-05-19T09:33:16.646Z,27.77
2019-05-19T09:35:44.857Z,28.03
2019-05-19T09:38:13.072Z,27.53
2019-05-19T09:40:41.280Z,28.12
2019-05-19T09:43:09.422Z,27.50
2019-05-19T09:45:37.552Z,29.01
2019-05-19T09:48:05.699Z,29.29
2019-05-19T09:50:33.883Z,29.48
2019-05-19T09:53:02.208Z,29.57
2019-05-19T09:55:30.428Z,29.75
2019-05-19T09:57:58.587Z,27.28
2019-05-19T10:00:26.705Z,29.53
2019-05-19T10:02:54.952Z,29.40
2019-05-19T10:05:23.132Z,29.13
2019-05-19T10:07:51.346Z,29.23
2019-05-19T10:10:42.678Z,28.82
2019-05-19T10:13:10.868Z,28.68
2019-05-19T10:15:39.104Z,28.14
2019-05-19T10:18:07.655Z,28.23
2019-05-19T10:20:35.851Z,26.89
2019-05-19T10:23:04.034Z,27.38
2019-05-19T10:25:32.172Z,28.66
2019-05-19T10:28:00.400Z,28.12
2019-05-19T10:30:28.598Z,28.76
2019-05-19T10:32:58.888Z,28.34
2019-05-19T10:35:27.230Z,28.58
2019-05-19T10:37:55.474Z,29.60
2019-05-19T10:40:23.729Z,28.32
2019-05-19T10:42:51.900Z,27.52
2019-05-19T10:45:20.043Z,27.71
2019-05-19T10:47:48.171Z,27.98
2019-05-19T10:50:16.362Z,25.63
2019-05-19T10:52:44.623Z,25.37
2019-05-19T10:55:13.035Z,28.14
2019-05-19T10:57:41.254Z,27.00
2019-05-19T11:00:09.747Z,28.45
2019-05-19T11:02:37.896Z,26.09
2019-05-19T11:05:06.812Z,27.31
2019-05-19T11:07:34.994Z,29.42
2019-05-19T11:10:03.102Z,30.10
2019-05-19T11:12:31.316Z,28.13
2019-05-19T11:14:59.526Z,28.66
2019-05-19T11:17:27.798Z,27.74
2019-05-19T11:19:56.023Z,29.42
2019-05-19T11:22:24.258Z,30.83
2019-05-19T11:24:52.423Z,31.42
2019-05-19T11:27:20.706Z,31.39
2019-05-19T11:29:48.941Z,30.04
2019-05-19T11:32:17.142Z,29.79
2019-05-19T11:34:45.266Z,30.41
2019-05-19T11:37:13.410Z,30.43
2019-05-19T11:39:41.644Z,30.62
2019-05-19T11:42:09.836Z,33.02
2019-05-19T11:44:38.064Z,32.37
2019-05-19T11:47:06.209Z,34.11
2019-05-19T11:49:34.482Z,34.40
2019-05-19T11:52:02.726Z,32.99
2019-05-19T11:54:30.893Z,33.83
2019-05-19T11:56:59.109Z,33.85
2019-05-19T11:59:27.339Z,34.41
2019-05-19T12:01:56.034Z,33.53
2019-05-19T12:04:24.296Z,34.09
2019-05-19T12:06:52.493Z,34.57
2019-05-19T12:09:20.754Z,33.28
2019-05-19T12:11:48.967Z,34.04
2019-05-19T12:14:17.319Z,34.36
2019-05-19T12:16:45.548Z,33.77
2019-05-19T12:19:13.912Z,34.73
2019-05-19T12:21:42.088Z,35.56
2019-05-19T12:24:10.332Z,35.59
2019-05-19T12:26:38.516Z,32.51
2019-05-19T12:29:06.687Z,35.02
2019-05-19T12:31:34.854Z,35.00
2019-05-19T12:34:03.033Z,34.63
2019-05-19T12:36:31.344Z,35.46
2019-05-19T12:38:59.579Z,35.52
2019-05-19T12:41:27.854Z,35.17
2019-05-19T12:43:56.108Z,35.17
2019-05-19T12:46:24.318Z,36.67
2019-05-19T12:48:52.595Z,35.11
2019-05-19T12:51:20.807Z,35.61
2019-05-19T12:53:49.019Z,36.68
2019-05-19T12:56:17.223Z,35.88
2019-05-19T12:58:45.495Z,36.73
2019-05-19T13:01:13.685Z,37.60
2019-05-19T13:03:41.933Z,37.97
2019-05-19T13:06:10.257Z,37.91
2019-05-19T13:08:38.379Z,36.54
2019-05-19T13:11:06.586Z,37.67
2019-05-19T13:13:34.817Z,36.95
2019-05-19T13:16:03.145Z,37.46
2019-05-19T13:18:31.315Z,38.20
2019-05-19T13:20:59.615Z,37.22
2019-05-19T13:23:27.923Z,38.08
2019-05-19T13:25:56.137Z,36.83
2019-05-19T13:28:24.358Z,36.64
2019-05-19T13:30:52.508Z,35.84
2019-05-19T13:33:20.763Z,33.90
2019-05-19T13:35:48.935Z,35.62
2019-05-19T13:38:17.155Z,37.21
2019-05-19T13:40:45.358Z,37.71
2019-05-19T13:43:13.534Z,37.89
2019-05-19T13:45:41.734Z,38.49
2019-05-19T13:48:09.868Z,38.15
2019-05-19T13:50:38.052Z,38.52
2019-05-19T13:53:06.270Z,38.85
2019-05-19T13:55:34.447Z,38.94
2019-05-19T13:58:03.613Z,38.61
2019-05-19T14:00:31.860Z,37.85
2019-05-19T14:03:00.094Z,38.80
2019-05-19T14:05:28.337Z,36.43
2019-05-19T14:07:56.741Z,38.65
2019-05-19T14:10:24.963Z,38.96
2019-05-19T14:12:53.181Z,38.61
2019-05-19T14:15:21.453Z,38.51
2019-05-19T14:17:49.609Z,38.73
2019-05-19T14:20:18.046Z,38.51
2019-05-19T14:22:46.263Z,38.62
2019-05-19T14:25:15.896Z,39.22
2019-05-19T14:27:44.068Z,38.70
2019-05-19T14:30:12.910Z,38.96
2019-05-19T14:32:41.233Z,39.64
2019-05-19T14:35:09.565Z,39.87
2019-05-19T14:37:37.832Z,38.19
2019-05-19T14:40:07.645Z,39.18
2019-05-19T14:42:50.052Z,39.37
2019-05-19T14:45:19.412Z,38.74
2019-05-19T14:47:47.562Z,39.05
2019-05-19T14:50:16.458Z,38.80
2019-05-19T14:52:44.614Z,39.57
2019-05-19T14:55:13.425Z,37.03
2019-05-19T14:57:45.314Z,39.24
2019-05-19T15:00:12.129Z,39.53
2019-05-19T15:02:39.410Z,38.02
2019-05-19T15:05:07.575Z,37.85
2019-05-19T15:07:35.788Z,38.14
2019-05-19T15:10:03.977Z,37.88
2019-05-19T15:12:32.221Z,37.75
2019-05-19T15:15:00.559Z,38.06
2019-05-19T15:17:28.748Z,37.20
2019-05-19T15:19:57.031Z,38.14
2019-05-19T15:22:25.200Z,38.49
2019-05-19T15:24:53.417Z,38.54
2019-05-19T15:27:21.709Z,38.13
2019-05-19T15:29:49.886Z,37.28
2019-05-19T15:32:18.099Z,37.80
2019-05-19T15:34:46.339Z,36.45
2019-05-19T15:37:14.543Z,37.15
2019-05-19T15:39:42.734Z,37.22
2019-05-19T15:42:10.964Z,37.50
2019-05-19T15:44:39.190Z,36.11
2019-05-19T15:47:07.382Z,37.19
2019-05-19T15:49:35.522Z,37.53
2019-05-19T15:52:05.545Z,36.47
2019-05-19T15:54:33.701Z,37.15
2019-05-19T15:57:01.911Z,34.93
2019-05-19T15:59:30.092Z,36.87
2019-05-19T16:01:58.260Z,36.69
2019-05-19T16:04:26.513Z,36.49
2019-05-19T16:06:54.687Z,35.92
2019-05-19T16:09:22.900Z,35.84
2019-05-19T16:11:51.067Z,36.76
2019-05-19T16:14:19.215Z,36.38
2019-05-19T16:16:47.453Z,35.04
2019-05-19T16:19:15.664Z,35.52
2019-05-19T16:21:43.887Z,36.49
2019-05-19T16:24:12.113Z,36.22
2019-05-19T16:26:40.293Z,36.57
2019-05-19T16:29:08.480Z,36.49
2019-05-19T16:31:36.628Z,35.38
2019-05-19T16:34:04.811Z,35.86
2019-05-19T16:36:33.016Z,35.39
2019-05-19T16:39:01.202Z,35.55
2019-05-19T16:41:29.411Z,36.20
2019-05-19T16:43:57.739Z,36.32
2019-05-19T16:46:26.076Z,35.40
2019-05-19T16:48:54.300Z,35.79
2019-05-19T16:51:22.517Z,35.90
2019-05-19T16:53:52.842Z,35.75
2019-05-19T16:56:21.054Z,35.42
2019-05-19T16:58:49.335Z,35.14
2019-05-19T17:01:19.992Z,34.54
2019-05-19T17:03:47.427Z,34.12
2019-05-19T17:06:15.769Z,34.79
2019-05-19T17:08:43.985Z,34.86
2019-05-19T17:11:18.413Z,34.42
2019-05-19T17:13:42.238Z,34.42
2019-05-19T17:16:10.477Z,33.92
2019-05-19T17:18:38.680Z,33.45
2019-05-19T17:21:06.913Z,33.47
2019-05-19T17:23:35.165Z,33.42
2019-05-19T17:26:03.410Z,33.38
2019-05-19T17:28:31.608Z,33.29
2019-05-19T17:30:59.972Z,33.16
2019-05-19T17:33:28.276Z,32.94
2019-05-19T17:35:56.560Z,32.76
2019-05-19T17:38:24.755Z,32.36
2019-05-19T17:40:52.974Z,31.39
2019-05-19T17:43:21.196Z,31.76
2019-05-19T17:45:49.362Z,30.47
2019-05-19T17:48:26.101Z,31.38
2019-05-19T17:50:47.456Z,31.15
2019-05-19T17:53:15.678Z,30.74
2019-05-19T17:55:45.050Z,30.85
2019-05-19T17:58:12.287Z,30.44
2019-05-19T18:00:42.004Z,29.39
2019-05-19T18:03:10.614Z,29.89
2019-05-19T18:05:39.179Z,29.85
2019-05-19T18:08:07.409Z,29.26
2019-05-19T18:10:35.644Z,29.47
2019-05-19T18:13:03.857Z,29.33
2019-05-19T18:15:32.612Z,29.17
2019-05-19T18:18:00.730Z,29.17
2019-05-19T18:20:28.933Z,29.08
2019-05-19T18:22:57.595Z,28.86
2019-05-19T18:25:25.792Z,28.74
2019-05-19T18:27:53.999Z,28.57
2019-05-19T18:30:22.254Z,28.17
2019-05-19T18:32:50.428Z,26.37
2019-05-19T18:35:18.580Z,23.00
2019-05-19T18:37:46.846Z,23.08
2019-05-19T18:40:15.016Z,23.11
2019-05-19T18:42:43.195Z,24.25
2019-05-19T18:45:11.325Z,25.48
2019-05-19T18:47:39.885Z,25.80
2019-05-19T18:50:08.255Z,25.79
2019-05-19T18:52:36.533Z,26.41
2019-05-19T18:55:05.073Z,26.51
2019-05-19T18:57:33.274Z,26.44
2019-05-19T19:00:01.593Z,26.32
2019-05-19T19:02:29.846Z,26.05
2019-05-19T19:04:57.999Z,25.84
2019-05-19T19:07:45.120Z,25.84
2019-05-19T19:10:13.303Z,25.76
2019-05-19T19:12:41.500Z,25.63
2019-05-19T19:15:09.679Z,25.09
2019-05-19T19:17:39.163Z,25.27
2019-05-19T19:20:07.436Z,25.21
2019-05-19T19:22:35.606Z,25.09
2019-05-19T19:25:03.853Z,24.87
2019-05-19T19:27:32.149Z,24.78
2019-05-19T19:30:03.364Z,24.71
2019-05-19T19:32:30.193Z,23.95
2019-05-19T19:34:58.343Z,24.15
2019-05-19T19:37:26.543Z,24.16
2019-05-19T19:39:54.716Z,24.10
2019-05-19T19:42:23.217Z,23.64
2019-05-19T19:44:51.390Z,23.40
2019-05-19T19:47:19.595Z,23.48
2019-05-19T19:49:47.748Z,23.47
2019-05-19T19:52:15.953Z,23.40
2019-05-19T19:54:44.079Z,23.31
2019-05-19T19:57:12.259Z,23.20
2019-05-19T19:59:40.436Z,23.00
2019-05-19T20:02:08.573Z,22.90
2019-05-19T20:04:36.833Z,22.82
2019-05-19T20:07:04.985Z,22.60
2019-05-19T20:09:33.491Z,22.42
2019-05-19T20:12:01.611Z,22.37
2019-05-19T20:14:29.809Z,22.20
2019-05-19T20:16:58.041Z,22.13
2019-05-19T20:19:26.436Z,21.98
2019-05-19T20:21:54.753Z,21.90
2019-05-19T20:24:22.945Z,21.59
2019-05-19T20:26:51.087Z,21.43
2019-05-19T20:29:19.173Z,21.36
2019-05-19T20:31:47.283Z,21.12
2019-05-19T20:34:15.524Z,21.15
2019-05-19T20:36:43.646Z,21.10
2019-05-19T20:39:11.777Z,20.90
2019-05-19T20:41:39.973Z,20.90
2019-05-19T20:44:08.085Z,20.84
2019-05-19T20:46:36.243Z,20.67
2019-05-19T20:49:04.342Z,20.63
2019-05-19T20:51:34.092Z,20.56
2019-05-19T20:54:02.339Z,20.36
2019-05-19T20:56:30.625Z,20.31
2019-05-19T20:58:58.819Z,20.19
2019-05-19T21:01:27.026Z,20.14
2019-05-19T21:03:55.270Z,19.93
2019-05-19T21:06:23.439Z,19.89
2019-05-19T21:08:51.679Z,19.84
2019-05-19T21:11:19.847Z,19.74
2019-05-19T21:13:48.166Z,19.62
2019-05-19T21:16:16.355Z,19.54
2019-05-19T21:18:44.582Z,19.44
2019-05-19T21:21:12.798Z,19.33
2019-05-19T21:23:41.052Z,19.25
2019-05-19T21:26:09.227Z,19.14
2019-05-19T21:28:37.434Z,19.07
2019-05-19T21:31:06.417Z,19.01
2019-05-19T21:33:34.675Z,18.65
2019-05-19T21:36:02.883Z,18.29
2019-05-19T21:38:31.036Z,18.45
2019-05-19T21:40:59.321Z,18.26
2019-05-19T21:43:27.562Z,17.75
2019-05-19T21:45:55.705Z,18.22
2019-05-19T21:48:34.212Z,18.18
2019-05-19T21:51:02.526Z,18.15
2019-05-19T21:53:30.729Z,18.14
2019-05-19T21:55:59.700Z,18.04
2019-05-19T21:58:27.816Z,17.99
2019-05-19T22:00:55.935Z,17.91
2019-05-19T22:03:24.064Z,17.83
2019-05-19T22:05:53.671Z,17.66
2019-05-19T22:08:22.533Z,17.67
2019-05-19T22:10:50.723Z,17.57
2019-05-19T22:13:19.151Z,17.51
2019-05-19T22:15:47.360Z,17.49
2019-05-19T22:18:15.726Z,17.39
2019-05-19T22:20:43.894Z,17.25
2019-05-19T22:23:12.097Z,17.23
2019-05-19T22:25:40.327Z,17.24
2019-05-19T22:28:08.526Z,17.03
2019-05-19T22:30:36.652Z,17.03
2019-05-19T22:33:04.994Z,17.01
2019-05-19T22:35:33.086Z,16.87
2019-05-19T22:38:01.196Z,16.70
2019-05-19T22:40:29.460Z,16.80
2019-05-19T22:42:57.579Z,16.78
2019-05-19T22:45:25.845Z,16.75
2019-05-19T22:47:53.979Z,16.70
2019-05-19T22:50:22.194Z,16.69
2019-05-19T22:52:50.333Z,16.58
2019-05-19T22:55:18.742Z,16.35
2019-05-19T22:57:46.893Z,15.93
2019-05-19T23:00:16.345Z,16.15
2019-05-19T23:02:44.581Z,16.30
2019-05-19T23:05:12.938Z,16.39
2019-05-19T23:07:41.040Z,16.36
2019-05-19T23:10:09.515Z,16.28
2019-05-19T23:12:37.639Z,16.29
2019-05-19T23:15:06.897Z,16.26
2019-05-19T23:17:35.074Z,16.16
2019-05-19T23:20:03.248Z,16.11
2019-05-19T23:22:31.325Z,16.09
2019-05-19T23:24:59.503Z,16.04
2019-05-19T23:27:27.671Z,15.92
2019-05-19T23:29:55.936Z,15.93
2019-05-19T23:32:24.246Z,15.89
2019-05-19T23:34:52.372Z,15.85
2019-05-19T23:37:20.558Z,15.74
2019-05-19T23:39:48.776Z,15.71
2019-05-19T23:42:16.887Z,15.60
2019-05-19T23:44:45.112Z,15.56
2019-05-19T23:47:13.372Z,15.57
2019-05-19T23:49:41.501Z,15.45
2019-05-19T23:52:09.707Z,15.41
2019-05-19T23:54:38.040Z,15.31
2019-05-19T23:57:06.157Z,15.32
2019-05-19T23:59:34.343Z,15.25
